Time;durP1;ratioP1;P1;durP2;ratioP2;P2;SDS_P1;SDS_P2;PMS_P1;PMS_P2;Temp;Humidity;BMP_temperature;BMP_pressure;BME280_temperature;BME280_humidity;BME280_pressure;Samples;Min_cycle;Max_cycle;Signal;HPM_P1;HPM_P2
2021/07/03 00:00:11;;;;;;;;;9.00;9.00;;;;;23.34;53.39;98501.50;6226038;28;97033;-65
2021/07/03 00:03:15;;;;;;;;;10.00;9.00;;;;;23.30;53.54;98506.00;6222831;27;97381;-66
2021/07/03 00:06:18;;;;;;;;;9.40;8.00;;;;;23.15;53.71;98503.63;6237263;28;98451;-67
2021/07/03 00:09:21;;;;;;;;;9.50;9.00;;;;;23.09;53.79;98508.44;6237285;28;98079;-66
2021/07/03 00:12:24;;;;;;;;;7.00;7.00;;;;;23.11;53.74;98519.16;6236072;28;97515;-66
2021/07/03 00:15:29;;;;;;;;;10.00;10.00;;;;;23.01;54.21;98508.41;6228275;28;97706;-66
2021/07/03 00:18:33;;;;;;;;;8.40;8.00;;;;;23.07;53.90;98504.38;6227931;28;96816;-66
2021/07/03 00:21:37;;;;;;;;;8.00;8.00;;;;;23.09;54.00;98508.44;6221996;28;96988;-67
2021/07/03 00:24:40;;;;;;;;;7.20;6.20;;;;;23.11;54.00;98508.16;6233545;27;97455;-67
2021/07/03 00:27:44;;;;;;;;;7.00;7.00;;;;;23.11;53.74;98510.91;6226918;28;100299;-67
2021/07/03 00:30:48;;;;;;;;;8.00;7.00;;;;;22.94;54.23;98519.00;6236385;28;97758;-67
2021/07/03 00:33:51;;;;;;;;;8.00;8.00;;;;;23.00;53.86;98510.31;6236760;28;98526;-65
2021/07/03 00:36:55;;;;;;;;;7.00;7.00;;;;;22.83;54.19;98486.25;6226563;28;97513;-66
2021/07/03 00:40:02;;;;;;;;;7.40;7.00;;;;;23.01;53.83;98509.22;6237320;28;97087;-66
2021/07/03 00:43:05;;;;;;;;;9.00;8.00;;;;;22.99;53.87;98505.13;6236308;27;96508;-66
2021/07/03 00:46:12;;;;;;;;;10.00;9.00;;;;;23.04;54.16;98511.31;6235170;28;97103;-66
2021/07/03 00:49:16;;;;;;;;;8.00;8.00;;;;;23.06;53.75;98508.28;6224518;28;97358;-65
2021/07/03 00:52:19;;;;;;;;;9.80;9.20;;;;;23.02;53.84;98502.56;6236247;28;97950;-65
2021/07/03 00:55:26;;;;;;;;;7.75;6.25;;;;;22.99;53.92;98497.69;6224143;28;97361;-66
2021/07/03 00:58:30;;;;;;;;;6.80;6.00;;;;;22.93;54.34;98501.69;6229388;28;97661;-66
2021/07/03 01:01:35;;;;;;;;;9.00;9.00;;;;;22.86;54.23;98499.38;6223359;28;99536;-65
2021/07/03 01:04:39;;;;;;;;;8.00;6.80;;;;;22.87;54.24;98497.47;6236992;27;97034;-65
2021/07/03 01:07:42;;;;;;;;;8.50;7.00;;;;;22.82;54.53;98505.81;6234260;28;97081;-66
2021/07/03 01:10:46;;;;;;;;;8.00;7.40;;;;;22.80;54.85;98497.88;6237342;27;97843;-66
2021/07/03 01:13:56;;;;;;;;;10.00;9.25;;;;;22.72;54.67;98497.81;6224701;28;98072;-66
2021/07/03 01:17:01;;;;;;;;;8.00;7.00;;;;;22.60;55.50;98486.50;6233263;27;97258;-66
2021/07/03 01:20:05;;;;;;;;;9.00;9.00;;;;;22.61;55.18;98479.91;6227798;28;97079;-64
2021/07/03 01:23:10;;;;;;;;;9.25;9.25;;;;;22.59;55.62;98480.19;6237394;27;96679;-64
2021/07/03 01:26:14;;;;;;;;;11.25;10.25;;;;;22.57;55.37;98470.66;6234932;27;96814;-64
2021/07/03 01:29:20;;;;;;;;;10.00;9.00;;;;;22.54;55.76;98472.06;6236539;28;96441;-65
2021/07/03 01:32:23;;;;;;;;;10.40;9.00;;;;;22.60;55.60;98470.84;6216720;28;97866;-65
2021/07/03 01:35:28;;;;;;;;;10.00;10.00;;;;;22.61;55.25;98468.91;6233131;28;96606;-66
2021/07/03 01:38:36;;;;;;;;;12.00;11.00;;;;;22.58;55.85;98464.81;6235153;28;97087;-65
2021/07/03 01:41:43;;;;;;;;;12.00;11.00;;;;;22.57;55.79;98468.72;6235157;28;97564;-64
2021/07/03 01:44:49;;;;;;;;;9.80;9.00;;;;;22.57;55.94;98476.16;6229918;28;97531;-64
2021/07/03 01:47:54;;;;;;;;;12.40;11.40;;;;;22.62;55.48;98474.09;6234824;28;98181;-65
2021/07/03 01:50:59;;;;;;;;;11.00;10.40;;;;;22.54;56.19;98471.25;6236655;27;97078;-65
2021/07/03 01:54:04;;;;;;;;;12.00;11.00;;;;;22.59;55.59;98471.94;6231131;28;96893;-65
2021/07/03 01:57:07;;;;;;;;;12.00;11.00;;;;;22.64;55.87;98473.78;6226502;28;97075;-66
2021/07/03 02:00:41;;;;;;;;;12.00;11.00;;;;;22.63;55.79;98472.13;6226651;28;97563;-66
2021/07/03 02:03:53;;;;;;;;;12.00;12.00;;;;;22.61;55.71;98464.22;6213562;28;98411;-66
2021/07/03 02:07:10;;;;;;;;;11.00;10.00;;;;;22.59;56.05;98465.66;6222284;28;97087;-66
2021/07/03 02:10:16;;;;;;;;;12.33;12.00;;;;;22.63;56.14;98464.72;6227727;28;97477;-66
2021/07/03 02:13:20;;;;;;;;;13.25;12.00;;;;;22.59;56.21;98452.72;6234513;28;96593;-65
2021/07/03 02:16:23;;;;;;;;;11.80;10.20;;;;;22.58;56.00;98455.81;6204470;28;97861;-65
2021/07/03 02:19:28;;;;;;;;;14.25;13.00;;;;;22.51;56.26;98461.72;6234782;28;97061;-64
2021/07/03 02:22:33;;;;;;;;;14.00;12.80;;;;;22.51;56.02;98458.16;6215577;28;97966;-66
2021/07/03 02:25:40;;;;;;;;;14.50;12.50;;;;;22.51;56.53;98455.41;6227095;28;96744;-66
2021/07/03 02:28:49;;;;;;;;;15.00;12.75;;;;;22.39;56.52;98458.69;6230065;28;97203;-67
2021/07/03 02:32:00;;;;;;;;;16.00;15.00;;;;;22.36;56.88;98453.81;6240957;27;97359;-65
2021/07/03 02:35:06;;;;;;;;;12.00;11.60;;;;;22.33;57.11;98455.22;6242209;27;98109;-66
2021/07/03 02:38:11;;;;;;;;;14.75;13.75;;;;;22.28;56.93;98455.38;6249133;27;98053;-66
2021/07/03 02:41:17;;;;;;;;;15.40;14.80;;;;;22.34;56.74;98458.78;6227105;27;96629;-64
2021/07/03 02:44:21;;;;;;;;;16.40;15.40;;;;;22.30;56.85;98458.59;6238648;28;96540;-65
2021/07/03 02:47:26;;;;;;;;;16.50;15.00;;;;;22.41;56.94;98461.94;6240425;28;97501;-66
2021/07/03 02:50:30;;;;;;;;;14.75;14.25;;;;;22.37;56.75;98464.50;6239513;27;98009;-66
2021/07/03 02:53:35;;;;;;;;;14.20;14.20;;;;;22.38;56.84;98468.84;6239680;27;97449;-66
2021/07/03 02:56:40;;;;;;;;;13.20;13.00;;;;;22.41;57.16;98470.19;6238752;28;96586;-66
2021/07/03 02:59:43;;;;;;;;;15.00;15.00;;;;;22.46;56.84;98465.38;6230925;27;98663;-67
2021/07/03 03:02:48;;;;;;;;;17.00;15.40;;;;;22.44;56.59;98453.06;6221157;28;97167;-66
2021/07/03 03:05:51;;;;;;;;;17.00;16.00;;;;;22.61;56.41;98468.91;6226508;28;97721;-66
2021/07/03 03:08:55;;;;;;;;;20.25;15.25;;;;;22.54;56.21;98476.75;6231621;28;97536;-65
2021/07/03 03:12:02;;;;;;;;;16.00;16.00;;;;;22.56;56.17;98477.25;6229642;28;97915;-66
2021/07/03 03:15:08;;;;;;;;;23.20;19.00;;;;;22.50;56.60;98478.50;6224576;28;97562;-66
2021/07/03 03:18:12;;;;;;;;;17.00;16.00;;;;;22.53;56.54;98478.69;6232286;28;97583;-66
2021/07/03 03:21:15;;;;;;;;;18.50;17.50;;;;;22.66;56.14;98486.09;6224710;27;98024;-66
2021/07/03 03:24:20;;;;;;;;;19.00;18.00;;;;;22.56;56.27;98478.06;6238728;28;96964;-66
2021/07/03 03:27:25;;;;;;;;;20.00;17.80;;;;;22.58;56.38;98481.31;6238462;27;97425;-65
2021/07/03 03:30:30;;;;;;;;;20.00;19.40;;;;;22.63;56.40;98483.13;6226303;28;97548;-66
2021/07/03 03:33:38;;;;;;;;;19.60;18.00;;;;;22.68;56.08;98481.06;6237609;28;97128;-67
2021/07/03 03:36:51;;;;;;;;;19.00;17.00;;;;;22.77;55.56;98475.72;6237110;28;97513;-64
2021/07/03 03:39:54;;;;;;;;;20.00;19.40;;;;;22.78;55.54;98474.56;6236359;27;97392;-65
2021/07/03 03:42:59;;;;;;;;;21.80;19.40;;;;;22.73;55.46;98477.44;6230278;28;96580;-66
2021/07/03 03:46:04;;;;;;;;;24.00;20.00;;;;;22.79;55.62;98468.75;6236574;28;97434;-66
2021/07/03 03:49:08;;;;;;;;;22.00;20.00;;;;;22.84;55.29;98476.06;6235141;28;96638;-64
2021/07/03 03:52:13;;;;;;;;;20.20;18.20;;;;;22.79;55.33;98455.03;6236307;28;96659;-65
2021/07/03 03:55:17;;;;;;;;;24.00;23.00;;;;;22.88;54.96;98468.81;6217339;28;96675;-66
2021/07/03 03:58:22;;;;;;;;;21.00;20.00;;;;;22.95;55.15;98471.97;6243287;27;97365;-66
2021/07/03 04:01:25;;;;;;;;;20.00;19.60;;;;;22.99;55.30;98470.22;6233529;28;97071;-66
2021/07/03 04:04:28;;;;;;;;;24.00;21.00;;;;;22.99;54.71;98475.72;6242907;27;97304;-64
2021/07/03 04:07:32;;;;;;;;;24.00;21.80;;;;;23.01;54.88;98480.91;6234553;28;97427;-64
2021/07/03 04:10:35;;;;;;;;;22.00;21.00;;;;;22.98;55.20;98487.81;6225429;28;97207;-64
2021/07/03 04:13:41;;;;;;;;;23.00;21.00;;;;;22.95;55.53;98480.22;6229630;27;96789;-65
2021/07/03 04:16:44;;;;;;;;;26.00;23.00;;;;;22.96;55.25;98476.34;6229098;28;98999;-66
2021/07/03 04:19:48;;;;;;;;;23.60;22.00;;;;;23.01;54.92;98481.72;6235909;28;97214;-65
2021/07/03 04:22:51;;;;;;;;;23.50;21.00;;;;;22.97;55.08;98477.94;6237325;28;96916;-66
2021/07/03 04:25:55;;;;;;;;;21.60;20.60;;;;;23.00;55.23;98474.59;6215639;28;97712;-65
2021/07/03 04:29:04;;;;;;;;;24.00;20.50;;;;;22.94;55.28;98472.25;6247139;27;97097;-66
2021/07/03 04:32:08;;;;;;;;;22.60;21.00;;;;;23.06;54.97;98476.09;6229560;27;96619;-67
2021/07/03 04:35:13;;;;;;;;;24.40;22.40;;;;;23.13;54.47;98470.94;6229393;28;97213;-65
2021/07/03 04:38:16;;;;;;;;;23.00;22.00;;;;;23.19;54.50;98477.13;6233502;28;97292;-68
2021/07/03 04:41:19;;;;;;;;;22.80;21.00;;;;;23.17;54.74;98480.19;6237936;28;97107;-65
2021/07/03 04:44:24;;;;;;;;;23.00;21.00;;;;;23.25;54.56;98473.13;6236754;27;96807;-66
2021/07/03 04:47:27;;;;;;;;;24.00;22.00;;;;;23.31;54.27;98477.38;6237228;27;97430;-67
2021/07/03 04:50:30;;;;;;;;;25.00;21.40;;;;;23.40;54.30;98480.19;6234664;28;100141;-65
2021/07/03 04:53:33;;;;;;;;;23.50;21.50;;;;;23.45;54.04;98480.91;6236773;27;97444;-65
2021/07/03 04:56:37;;;;;;;;;27.00;23.40;;;;;23.42;53.90;98488.91;6212109;28;98679;-67
2021/07/03 04:59:42;;;;;;;;;27.00;22.40;;;;;23.58;53.43;98495.69;6235375;28;97347;-65
2021/07/03 05:02:47;;;;;;;;;18.50;16.00;;;;;23.59;53.66;98500.06;6230798;28;97485;-65
2021/07/03 05:05:50;;;;;;;;;22.60;21.60;;;;;23.56;53.54;98504.25;6225191;28;96719;-66
2021/07/03 05:08:54;;;;;;;;;21.50;19.75;;;;;23.64;53.25;98500.75;6232445;28;96727;-65
2021/07/03 05:11:58;;;;;;;;;22.60;21.20;;;;;23.74;53.38;98496.91;6236002;28;96965;-67
2021/07/03 05:15:03;;;;;;;;;24.00;22.00;;;;;23.72;53.27;98493.63;6235428;28;97105;-65
2021/07/03 05:18:06;;;;;;;;;24.00;22.00;;;;;23.79;52.89;98499.50;6236280;28;97514;-65
2021/07/03 05:21:10;;;;;;;;;26.40;22.40;;;;;23.91;52.62;98496.13;6226073;28;96515;-65
2021/07/03 05:24:13;;;;;;;;;21.00;19.75;;;;;23.99;52.47;98487.13;6235762;27;96683;-67
2021/07/03 05:27:16;;;;;;;;;22.20;20.60;;;;;23.80;52.35;98490.09;6234805;28;97584;-65
2021/07/03 05:30:21;;;;;;;;;23.80;21.80;;;;;24.05;52.22;98483.06;6228652;27;97237;-65
2021/07/03 05:33:24;;;;;;;;;24.00;20.00;;;;;24.04;52.16;98479.50;6221576;27;97511;-66
2021/07/03 05:36:28;;;;;;;;;21.80;20.80;;;;;24.16;51.58;98471.47;6217434;28;99767;-66
2021/07/03 05:39:31;;;;;;;;;22.20;20.00;;;;;24.22;51.24;98469.38;6238048;27;97440;-66
2021/07/03 05:42:35;;;;;;;;;22.25;21.25;;;;;24.29;50.87;98480.72;6236085;28;96609;-68
2021/07/03 05:45:40;;;;;;;;;21.00;19.40;;;;;24.32;50.86;98482.03;6233596;28;96651;-67
2021/07/03 05:48:44;;;;;;;;;22.20;19.20;;;;;24.35;50.51;98475.88;6236214;27;96555;-65
2021/07/03 05:51:47;;;;;;;;;21.50;20.00;;;;;24.52;50.04;98471.22;6221061;28;96500;-66
2021/07/03 05:54:51;;;;;;;;;22.00;19.00;;;;;24.68;49.71;98466.03;6211775;28;96840;-64
2021/07/03 05:57:54;;;;;;;;;20.00;19.50;;;;;24.90;49.19;98476.13;6222222;27;96677;-65
2021/07/03 06:00:58;;;;;;;;;22.00;19.00;;;;;25.12;48.46;98484.19;6235542;28;97064;-64
2021/07/03 06:04:01;;;;;;;;;18.40;17.40;;;;;25.37;47.74;98488.88;6231875;27;97008;-65
2021/07/03 06:07:05;;;;;;;;;18.00;17.00;;;;;25.56;47.22;98490.50;6234255;28;97496;-66
2021/07/03 06:10:09;;;;;;;;;18.00;17.40;;;;;25.58;46.45;98493.72;6240635;28;97524;-65
2021/07/03 06:13:13;;;;;;;;;19.40;17.40;;;;;25.49;46.80;98495.66;6234818;27;97568;-65
2021/07/03 06:16:17;;;;;;;;;18.00;18.00;;;;;25.41;46.82;98500.84;6246841;27;97148;-65
2021/07/03 06:19:21;;;;;;;;;16.33;16.00;;;;;25.39;46.38;98500.41;6213884;28;99068;-66
2021/07/03 06:22:25;;;;;;;;;18.00;17.67;;;;;25.42;45.83;98507.19;6232503;28;97123;-66
2021/07/03 06:25:28;;;;;;;;;15.20;14.20;;;;;25.46;45.68;98506.22;6240163;28;97836;-66
2021/07/03 06:28:32;;;;;;;;;14.00;13.00;;;;;25.56;45.38;98512.56;6240163;27;96492;-66
2021/07/03 06:31:36;;;;;;;;;16.00;14.40;;;;;25.67;45.34;98514.63;6225828;28;97584;-66
2021/07/03 06:34:40;;;;;;;;;15.00;14.00;;;;;25.86;45.19;98515.06;6238206;28;96834;-66
2021/07/03 06:37:43;;;;;;;;;17.00;14.00;;;;;25.93;44.56;98511.78;6240799;28;97006;-67
2021/07/03 06:40:47;;;;;;;;;14.00;13.60;;;;;25.96;44.21;98511.13;6235847;27;97540;-65
2021/07/03 06:43:50;;;;;;;;;17.60;15.00;;;;;26.10;43.98;98513.66;6209548;28;98392;-66
2021/07/03 06:46:55;;;;;;;;;15.00;14.40;;;;;26.18;43.71;98513.63;6219825;28;98903;-65
2021/07/03 06:49:58;;;;;;;;;13.00;13.00;;;;;26.21;43.25;98524.03;6231791;27;96648;-67
2021/07/03 06:53:02;;;;;;;;;14.40;13.00;;;;;26.22;43.71;98525.66;6210657;27;98380;-66
2021/07/03 06:56:05;;;;;;;;;14.40;13.40;;;;;26.20;43.61;98530.66;6236118;27;96708;-66
2021/07/03 06:59:09;;;;;;;;;11.00;11.00;;;;;26.32;43.88;98520.88;6236457;27;96760;-66
2021/07/03 07:02:13;;;;;;;;;11.25;11.00;;;;;26.44;44.01;98521.00;6227424;27;97300;-64
2021/07/03 07:05:17;;;;;;;;;14.20;11.80;;;;;26.47;43.55;98517.56;6235705;28;97544;-66
2021/07/03 07:08:20;;;;;;;;;13.00;11.33;;;;;26.51;43.34;98516.56;6233356;27;97496;-65
2021/07/03 07:11:24;;;;;;;;;14.50;14.00;;;;;26.68;43.34;98521.94;6229686;28;97463;-65
2021/07/03 07:14:27;;;;;;;;;13.00;12.50;;;;;26.89;42.54;98518.41;6210399;27;97835;-66
2021/07/03 07:17:31;;;;;;;;;11.00;11.00;;;;;27.20;42.29;98520.75;6244890;27;97033;-66
2021/07/03 07:20:35;;;;;;;;;13.00;11.00;;;;;27.54;41.88;98526.00;6236306;28;97233;-67
2021/07/03 07:23:38;;;;;;;;;12.00;10.00;;;;;27.73;40.87;98526.28;6237650;28;96773;-68
2021/07/03 07:26:41;;;;;;;;;11.40;11.00;;;;;27.87;40.94;98523.19;6226202;28;98204;-66
2021/07/03 07:29:44;;;;;;;;;13.00;11.60;;;;;27.87;40.36;98520.41;6231446;27;96616;-65
2021/07/03 07:32:51;;;;;;;;;13.60;12.00;;;;;28.00;40.64;98522.84;6238596;27;96554;-66
2021/07/03 07:35:55;;;;;;;;;11.80;11.00;;;;;28.27;39.98;98523.34;6228752;28;98593;-67
2021/07/03 07:38:58;;;;;;;;;12.80;12.80;;;;;28.32;40.08;98534.22;6228053;27;97608;-65
2021/07/03 07:42:01;;;;;;;;;15.40;14.40;;;;;28.37;40.10;98526.47;6221485;28;96414;-66
2021/07/03 07:45:05;;;;;;;;;16.00;15.00;;;;;28.51;40.61;98534.44;6238706;28;97513;-66
2021/07/03 07:48:22;;;;;;;;;15.75;13.00;;;;;28.31;40.57;98529.81;6234938;28;98049;-67
2021/07/03 07:51:25;;;;;;;;;16.60;16.40;;;;;28.21;40.60;98536.63;6243587;27;97723;-66
2021/07/03 07:54:28;;;;;;;;;18.40;17.40;;;;;27.81;40.73;98519.81;6216741;28;96650;-67
2021/07/03 07:57:32;;;;;;;;;15.50;15.25;;;;;27.57;41.44;98528.88;6234099;28;97235;-66
2021/07/03 08:00:35;;;;;;;;;16.80;15.00;;;;;27.40;41.99;98526.28;6238703;28;96696;-65
2021/07/03 08:03:40;;;;;;;;;15.40;15.00;;;;;27.13;42.60;98524.88;6233770;28;98668;-66
2021/07/03 08:06:43;;;;;;;;;16.00;15.80;;;;;26.91;43.21;98530.78;6224401;28;97423;-65
2021/07/03 08:09:46;;;;;;;;;16.20;15.20;;;;;26.71;43.61;98537.88;6236537;28;97336;-67
2021/07/03 08:12:49;;;;;;;;;17.00;15.00;;;;;26.48;44.07;98538.53;6238956;27;96710;-67
2021/07/03 08:15:53;;;;;;;;;15.60;15.00;;;;;26.41;44.54;98538.22;6237158;28;98094;-66
2021/07/03 08:18:57;;;;;;;;;16.60;15.40;;;;;26.44;44.53;98538.38;6235005;28;96529;-65
2021/07/03 08:22:01;;;;;;;;;17.00;15.00;;;;;26.62;44.22;98534.38;6226136;28;96540;-67
2021/07/03 08:25:05;;;;;;;;;16.00;14.40;;;;;26.90;43.26;98525.56;6211375;28;97604;-65
2021/07/03 08:28:09;;;;;;;;;14.00;14.00;;;;;27.15;42.40;98530.09;6235934;28;97091;-66
2021/07/03 08:31:12;;;;;;;;;13.00;13.00;;;;;27.34;42.82;98524.03;6232598;27;97069;-66
2021/07/03 08:34:17;;;;;;;;;14.00;13.00;;;;;27.67;41.96;98530.41;6222259;28;96486;-66
2021/07/03 08:37:20;;;;;;;;;18.00;15.40;;;;;28.01;41.19;98518.09;6230258;28;97234;-67
2021/07/03 08:40:23;;;;;;;;;14.50;14.00;;;;;28.24;40.45;98522.09;6232281;28;96836;-67
2021/07/03 08:43:27;;;;;;;;;14.40;13.00;;;;;28.44;40.09;98512.03;6224762;28;98148;-66
2021/07/03 08:46:30;;;;;;;;;13.25;12.00;;;;;28.65;39.94;98528.50;6227228;28;96607;-66
2021/07/03 08:49:35;;;;;;;;;13.40;12.00;;;;;28.72;39.69;98528.78;6248316;27;97449;-66
2021/07/03 08:52:38;;;;;;;;;15.00;14.60;;;;;28.63;39.74;98517.78;6227166;28;97482;-66
2021/07/03 08:55:42;;;;;;;;;16.00;15.00;;;;;28.67;39.53;98518.69;6236259;28;98151;-66
2021/07/03 08:58:45;;;;;;;;;14.00;13.00;;;;;28.61;39.28;98519.28;6233126;27;97524;-66
2021/07/03 09:01:53;;;;;;;;;13.00;13.00;;;;;28.63;39.37;98530.84;6227723;28;96740;-68
2021/07/03 09:05:00;;;;;;;;;11.60;11.00;;;;;28.57;39.33;98524.72;6215984;28;97931;-68
2021/07/03 09:08:06;;;;;;;;;13.67;13.67;;;;;28.22;39.92;98529.94;6233063;27;97477;-64
2021/07/03 09:11:11;;;;;;;;;15.80;15.80;;;;;27.97;40.32;98526.31;6235523;27;97688;-66
2021/07/03 09:14:15;;;;;;;;;13.00;13.00;;;;;27.91;40.94;98524.91;6228629;28;98307;-65
2021/07/03 09:17:18;;;;;;;;;16.00;14.00;;;;;27.90;40.92;98525.28;6232309;28;98444;-67
2021/07/03 09:20:24;;;;;;;;;14.00;13.00;;;;;27.68;40.70;98509.88;6218653;28;98494;-67
2021/07/03 09:23:32;;;;;;;;;15.00;14.33;;;;;27.79;40.99;98513.81;6230543;28;97559;-66
2021/07/03 09:26:35;;;;;;;;;13.80;13.80;;;;;27.74;40.83;98514.03;6237413;27;97382;-66
2021/07/03 09:29:49;;;;;;;;;13.60;13.60;;;;;27.65;41.07;98521.66;6234858;27;97485;-66
2021/07/03 09:32:53;;;;;;;;;12.00;12.00;;;;;27.49;41.25;98521.47;6231445;27;96806;-65
2021/07/03 09:35:59;;;;;;;;;17.25;15.25;;;;;27.25;42.26;98523.31;6228181;28;96554;-67
2021/07/03 09:39:02;;;;;;;;;14.00;13.20;;;;;27.11;42.83;98524.44;6227402;27;98138;-66
2021/07/03 09:42:14;;;;;;;;;16.00;14.00;;;;;26.83;42.77;98522.53;6232019;27;96818;-67
2021/07/03 09:45:17;;;;;;;;;15.00;13.00;;;;;26.77;43.74;98513.59;6232548;27;96800;-66
2021/07/03 09:48:39;;;;;;;;;15.00;14.00;;;;;26.62;43.59;98508.69;6225446;28;97683;-66
2021/07/03 09:51:45;;;;;;;;;13.00;13.00;;;;;26.58;43.69;98511.31;6223849;28;97289;-65
2021/07/03 09:54:49;;;;;;;;;14.80;14.00;;;;;26.73;43.46;98507.13;6222920;28;97230;-66
2021/07/03 09:57:53;;;;;;;;;14.80;13.00;;;;;26.76;43.54;98500.94;6230735;27;97377;-66
2021/07/03 10:00:56;;;;;;;;;16.00;14.00;;;;;26.88;42.97;98503.78;6231986;28;97897;-67
2021/07/03 10:04:01;;;;;;;;;15.00;14.00;;;;;27.00;42.93;98498.31;6223750;28;97492;-65
2021/07/03 10:07:09;;;;;;;;;14.60;13.60;;;;;26.94;42.84;98496.09;6221256;28;98036;-66
2021/07/03 10:10:15;;;;;;;;;16.00;15.00;;;;;26.91;42.47;98507.84;6236315;28;97551;-66
2021/07/03 10:13:21;;;;;;;;;15.00;14.00;;;;;26.95;42.57;98498.50;6243243;27;96700;-66
2021/07/03 10:16:25;;;;;;;;;14.00;13.00;;;;;26.86;42.97;98506.09;6234150;27;97373;-65
2021/07/03 10:19:32;;;;;;;;;14.00;13.40;;;;;26.75;43.55;98502.06;6217189;28;98373;-66
2021/07/03 10:22:37;;;;;;;;;16.50;15.00;;;;;26.71;44.36;98501.13;6232856;28;97542;-65
2021/07/03 10:25:42;;;;;;;;;16.00;15.00;;;;;26.60;44.66;98492.41;6233782;27;97466;-66
2021/07/03 10:28:52;;;;;;;;;14.25;14.00;;;;;26.52;45.37;98496.06;6250391;27;96997;-64
2021/07/03 10:31:55;;;;;;;;;15.75;14.75;;;;;26.45;45.58;98494.94;6231174;27;98040;-63
2021/07/03 10:35:09;;;;;;;;;15.75;15.00;;;;;26.47;45.88;98498.22;6233719;28;96580;-66
2021/07/03 10:38:19;;;;;;;;;14.00;13.00;;;;;26.49;46.18;98495.91;6235599;27;97299;-65
2021/07/03 10:41:25;;;;;;;;;16.40;15.00;;;;;26.52;46.15;98492.47;6229099;28;97175;-66
2021/07/03 10:44:38;;;;;;;;;16.00;15.40;;;;;26.61;47.21;98488.50;6230935;28;97430;-66
2021/07/03 10:47:42;;;;;;;;;16.00;16.00;;;;;26.72;46.60;98491.69;6232926;27;96426;-67
2021/07/03 10:50:47;;;;;;;;;17.40;16.40;;;;;26.78;45.74;98489.53;6234495;27;96815;-65
2021/07/03 10:53:52;;;;;;;;;15.00;14.20;;;;;26.82;45.53;98483.00;6220073;28;97722;-67
2021/07/03 12:12:04;;;;;;;;;16.00;15.40;;;;;27.85;43.12;98481.97;6840226;23;96996;-64
2021/07/03 12:15:12;;;;;;;;;13.00;12.00;;;;;27.59;42.31;98495.31;6105715;28;96618;-64
2021/07/03 12:18:25;;;;;;;;;14.00;13.00;;;;;27.25;43.26;98474.31;6116070;28;97458;-64
2021/07/03 12:21:31;;;;;;;;;12.50;12.00;;;;;26.97;42.86;98459.47;6113725;28;97535;-65
2021/07/03 12:24:35;;;;;;;;;10.00;10.00;;;;;26.66;43.45;98451.56;6115170;28;97576;-64
2021/07/03 12:27:39;;;;;;;;;13.80;12.80;;;;;26.57;43.76;98459.09;6115315;28;96719;-62
2021/07/03 12:30:43;;;;;;;;;14.00;11.60;;;;;26.47;44.26;98456.75;6113166;28;97865;-63
2021/07/03 12:33:46;;;;;;;;;14.00;13.00;;;;;26.50;44.92;98469.88;6115298;28;97293;-62
2021/07/03 12:36:51;;;;;;;;;14.20;13.20;;;;;26.41;45.49;98461.66;6113753;28;96846;-63
2021/07/03 12:39:56;;;;;;;;;12.80;12.80;;;;;26.40;45.80;98465.56;6095684;28;100102;-62
2021/07/03 12:43:02;;;;;;;;;14.00;14.00;;;;;26.40;45.23;98470.28;6134334;28;96672;-64
2021/07/03 12:46:13;;;;;;;;;13.80;13.00;;;;;26.37;45.46;98459.91;6137561;28;97962;-63
2021/07/03 12:49:16;;;;;;;;;15.00;13.00;;;;;26.39;45.55;98463.94;6133479;28;97600;-63
2021/07/03 12:52:19;;;;;;;;;13.60;13.00;;;;;26.37;45.76;98454.38;6130043;28;96820;-63
2021/07/03 12:55:22;;;;;;;;;16.60;15.00;;;;;26.29;45.27;98450.53;6131888;28;96885;-63
2021/07/03 12:58:28;;;;;;;;;12.40;11.60;;;;;26.38;46.19;98458.75;6120713;28;96738;-62
2021/07/03 13:01:41;;;;;;;;;13.00;12.40;;;;;26.47;45.26;98453.97;6132285;28;97204;-63
2021/07/03 13:04:46;;;;;;;;;13.80;13.00;;;;;26.57;45.40;98445.28;6129072;28;96975;-63
2021/07/03 13:07:49;;;;;;;;;14.00;13.00;;;;;26.64;44.85;98438.06;6126160;28;97572;-63
2021/07/03 13:10:53;;;;;;;;;14.00;13.00;;;;;26.35;44.55;98387.56;6129591;28;97500;-63
2021/07/03 13:13:57;;;;;;;;;15.00;12.67;;;;;26.82;45.07;98454.50;6136778;28;97171;-63
2021/07/03 13:17:00;;;;;;;;;15.00;14.00;;;;;26.93;44.31;98450.19;6128216;28;97526;-62
2021/07/03 13:20:04;;;;;;;;;13.00;11.80;;;;;26.96;44.35;98452.31;6127476;28;98050;-62
2021/07/03 13:23:08;;;;;;;;;14.50;13.00;;;;;26.97;44.14;98449.19;6130245;28;97581;-63
2021/07/03 14:33:18;;;;;;;;;15.00;15.00;;;;;25.98;48.54;98441.75;7331969;23;97829;-66
2021/07/03 14:36:22;;;;;;;;;15.00;13.00;;;;;26.00;48.83;98439.47;6164069;28;97596;-64
2021/07/03 14:39:25;;;;;;;;;13.80;13.80;;;;;26.02;47.99;98431.63;6165752;28;96711;-64
2021/07/03 14:42:28;;;;;;;;;13.50;12.00;;;;;25.98;47.87;98431.50;6165249;28;97423;-66
2021/07/03 14:45:32;;;;;;;;;10.60;10.00;;;;;26.01;47.55;98433.59;6141741;28;96657;-66
2021/07/03 14:48:37;;;;;;;;;13.00;13.00;;;;;25.91;47.82;98422.91;6149320;28;97008;-66
2021/07/03 14:51:42;;;;;;;;;14.60;13.00;;;;;25.99;47.39;98424.84;6136250;28;97156;-65
2021/07/03 14:54:48;;;;;;;;;15.00;13.60;;;;;25.95;48.48;98426.63;6120090;28;97309;-65
2021/07/03 14:57:53;;;;;;;;;15.00;14.00;;;;;25.95;48.09;98428.59;6164589;28;96649;-64
2021/07/03 15:00:56;;;;;;;;;16.40;15.00;;;;;25.93;48.49;98425.34;6164843;28;96601;-64
2021/07/03 15:04:01;;;;;;;;;16.00;15.00;;;;;25.88;48.11;98424.41;6164537;28;97519;-66
2021/07/03 15:07:05;;;;;;;;;17.33;16.33;;;;;25.88;48.03;98421.66;6139359;28;97460;-64
2021/07/03 15:10:09;;;;;;;;;20.40;17.00;;;;;25.92;47.99;98429.25;6160718;28;97509;-64
2021/07/03 15:13:13;;;;;;;;;14.00;14.00;;;;;25.89;47.33;98419.69;6161066;28;96632;-65
2021/07/03 15:16:17;;;;;;;;;13.00;12.00;;;;;25.84;47.58;98426.22;6161384;28;96797;-65
2021/07/03 15:19:21;;;;;;;;;14.80;14.00;;;;;25.80;47.59;98421.69;6163376;28;98509;-65
2021/07/03 15:22:25;;;;;;;;;15.80;13.60;;;;;25.88;47.62;98418.88;6137312;28;97259;-66
2021/07/03 15:25:28;;;;;;;;;14.20;13.20;;;;;25.83;47.23;98429.31;6155424;28;96894;-66
2021/07/03 15:28:32;;;;;;;;;15.00;15.00;;;;;25.76;47.44;98415.19;6135358;28;96587;-65
2021/07/03 15:31:35;;;;;;;;;15.00;14.00;;;;;25.83;46.82;98421.03;6132658;28;96979;-65
2021/07/03 15:34:40;;;;;;;;;16.40;15.40;;;;;25.82;46.90;98419.41;6153235;28;96930;-65
2021/07/03 15:37:43;;;;;;;;;17.00;16.00;;;;;25.68;46.98;98419.63;6116533;28;97800;-65
2021/07/03 15:40:46;;;;;;;;;16.75;15.75;;;;;25.68;47.29;98429.84;6151267;28;96566;-66
2021/07/03 15:43:49;;;;;;;;;15.60;14.60;;;;;25.68;47.29;98422.38;6164231;28;98073;-65
2021/07/03 15:46:53;;;;;;;;;18.00;17.00;;;;;25.70;46.94;98420.13;6158528;28;96592;-66
2021/07/03 15:49:58;;;;;;;;;16.75;16.75;;;;;25.72;46.73;98417.00;6161528;28;96668;-66
2021/07/03 15:53:01;;;;;;;;;17.80;17.00;;;;;25.71;45.72;98418.13;6162142;28;98102;-65
2021/07/03 15:56:05;;;;;;;;;14.00;13.00;;;;;25.76;44.46;98413.25;6149970;28;96584;-66
2021/07/03 15:59:08;;;;;;;;;15.00;12.00;;;;;25.85;44.34;98414.00;6143703;28;97522;-65
2021/07/03 16:02:13;;;;;;;;;13.00;12.00;;;;;25.87;44.26;98416.44;6145083;28;97923;-65
2021/07/03 16:05:18;;;;;;;;;14.00;12.00;;;;;25.92;43.48;98420.97;6162993;28;97550;-65
2021/07/03 16:08:21;;;;;;;;;16.00;15.00;;;;;26.01;43.50;98419.78;6141983;28;97995;-66
2021/07/03 16:11:24;;;;;;;;;18.00;16.00;;;;;26.01;43.07;98427.25;6163604;28;97463;-66
2021/07/03 16:14:27;;;;;;;;;13.50;12.50;;;;;26.08;42.68;98424.78;6164927;28;96807;-66
2021/07/03 16:17:32;;;;;;;;;14.00;12.50;;;;;26.15;42.59;98431.38;6154831;28;96973;-65
2021/07/03 16:20:37;;;;;;;;;12.00;12.00;;;;;26.21;42.63;98419.03;6156071;28;96933;-65
2021/07/03 16:23:40;;;;;;;;;12.60;12.00;;;;;26.26;42.51;98424.38;6145636;28;97220;-66
2021/07/03 16:26:44;;;;;;;;;12.00;11.00;;;;;26.26;42.59;98427.13;6163204;28;97467;-66
2021/07/03 16:29:47;;;;;;;;;12.60;12.00;;;;;26.25;42.35;98430.22;6156830;28;97971;-65
2021/07/03 16:32:52;;;;;;;;;15.00;14.00;;;;;26.22;41.96;98426.19;6162863;28;97464;-65